sensor_id;sensor_type;location;lat;lon;timestamp;pressure;altitude;pressure_sealevel;temperature;humidity
81913;BME280;71377;50.698;7.164;2023-08-08T00:01:26;101032.38;;;13.99;82.89
81913;BME280;71377;50.698;7.164;2023-08-08T00:03:53;101029.59;;;14.02;83.20
81913;BME280;71377;50.698;7.164;2023-08-08T00:06:19;101024.44;;;13.99;83.23
81913;BME280;71377;50.698;7.164;2023-08-08T00:08:46;101020.16;;;14.17;83.40
81913;BME280;71377;50.698;7.164;2023-08-08T00:11:12;101020.81;;;14.01;82.74
81913;BME280;71377;50.698;7.164;2023-08-08T00:13:39;101021.81;;;13.99;82.81
81913;BME280;71377;50.698;7.164;2023-08-08T00:16:05;101012.53;;;14.09;83.20
81913;BME280;71377;50.698;7.164;2023-08-08T00:18:32;101020.53;;;13.87;82.94
81913;BME280;71377;50.698;7.164;2023-08-08T00:20:58;101018.97;;;13.83;82.69
81913;BME280;71377;50.698;7.164;2023-08-08T00:23:24;101015.31;;;13.85;82.77
81913;BME280;71377;50.698;7.164;2023-08-08T00:25:51;101020.75;;;13.82;83.07
81913;BME280;71377;50.698;7.164;2023-08-08T00:28:18;101015.34;;;13.64;82.33
81913;BME280;71377;50.698;7.164;2023-08-08T00:30:45;101007.50;;;13.62;82.81
81913;BME280;71377;50.698;7.164;2023-08-08T00:33:11;101008.03;;;13.50;82.58
81913;BME280;71377;50.698;7.164;2023-08-08T00:35:38;101006.19;;;13.52;82.45
81913;BME280;71377;50.698;7.164;2023-08-08T00:38:04;100997.34;;;13.53;82.57
81913;BME280;71377;50.698;7.164;2023-08-08T00:40:31;101004.34;;;13.54;82.88
81913;BME280;71377;50.698;7.164;2023-08-08T00:42:57;101004.66;;;13.46;82.72
81913;BME280;71377;50.698;7.164;2023-08-08T00:45:24;101005.78;;;13.41;82.19
81913;BME280;71377;50.698;7.164;2023-08-08T00:47:50;101005.09;;;13.36;82.10
81913;BME280;71377;50.698;7.164;2023-08-08T00:50:17;101006.16;;;13.32;82.50
81913;BME280;71377;50.698;7.164;2023-08-08T00:52:44;100996.56;;;13.29;81.75
81913;BME280;71377;50.698;7.164;2023-08-08T00:55:11;100988.94;;;13.23;82.25
81913;BME280;71377;50.698;7.164;2023-08-08T00:57:38;101000.34;;;13.23;81.41
81913;BME280;71377;50.698;7.164;2023-08-08T01:00:08;100997.84;;;13.19;82.05
81913;BME280;71377;50.698;7.164;2023-08-08T01:02:38;100990.28;;;13.10;82.05
81913;BME280;71377;50.698;7.164;2023-08-08T01:05:05;100995.50;;;13.11;82.39
81913;BME280;71377;50.698;7.164;2023-08-08T01:07:41;100996.31;;;13.13;82.54
81913;BME280;71377;50.698;7.164;2023-08-08T01:10:13;101004.41;;;13.09;81.73
81913;BME280;71377;50.698;7.164;2023-08-08T01:12:44;100995.19;;;13.19;82.32
81913;BME280;71377;50.698;7.164;2023-08-08T01:15:12;100988.66;;;13.07;82.18
81913;BME280;71377;50.698;7.164;2023-08-08T01:17:41;100988.78;;;13.04;82.12
81913;BME280;71377;50.698;7.164;2023-08-08T01:20:09;100991.66;;;13.20;82.69
81913;BME280;71377;50.698;7.164;2023-08-08T01:22:39;100992.94;;;13.10;82.59
81913;BME280;71377;50.698;7.164;2023-08-08T01:25:09;100997.66;;;13.01;82.17
81913;BME280;71377;50.698;7.164;2023-08-08T01:27:36;100995.84;;;13.04;82.13
81913;BME280;71377;50.698;7.164;2023-08-08T01:30:03;100994.84;;;13.06;82.52
81913;BME280;71377;50.698;7.164;2023-08-08T01:32:30;100998.13;;;13.11;82.81
81913;BME280;71377;50.698;7.164;2023-08-08T01:34:58;100994.84;;;13.06;82.45
81913;BME280;71377;50.698;7.164;2023-08-08T01:37:30;100999.31;;;13.04;82.73
81913;BME280;71377;50.698;7.164;2023-08-08T01:40:00;100990.22;;;13.11;82.48
81913;BME280;71377;50.698;7.164;2023-08-08T01:42:28;100990.19;;;13.13;82.34
81913;BME280;71377;50.698;7.164;2023-08-08T01:44:55;100986.38;;;13.20;82.01
81913;BME280;71377;50.698;7.164;2023-08-08T01:47:22;100987.22;;;13.22;81.81
81913;BME280;71377;50.698;7.164;2023-08-08T01:49:49;100986.34;;;13.21;82.07
81913;BME280;71377;50.698;7.164;2023-08-08T01:52:15;100982.66;;;13.25;81.88
81913;BME280;71377;50.698;7.164;2023-08-08T01:54:42;100980.44;;;13.15;81.64
81913;BME280;71377;50.698;7.164;2023-08-08T01:57:09;100979.44;;;13.17;82.00
81913;BME280;71377;50.698;7.164;2023-08-08T01:59:35;100984.91;;;13.13;81.42
81913;BME280;71377;50.698;7.164;2023-08-08T02:02:02;100985.81;;;13.12;81.77
81913;BME280;71377;50.698;7.164;2023-08-08T02:04:29;100992.94;;;13.10;82.36
81913;BME280;71377;50.698;7.164;2023-08-08T02:06:55;100985.56;;;13.18;82.06
81913;BME280;71377;50.698;7.164;2023-08-08T02:09:21;100985.78;;;13.35;82.70
81913;BME280;71377;50.698;7.164;2023-08-08T02:11:48;100989.13;;;13.17;81.80
81913;BME280;71377;50.698;7.164;2023-08-08T02:14:14;100990.59;;;13.02;81.71
81913;BME280;71377;50.698;7.164;2023-08-08T02:16:41;100989.88;;;12.98;81.65
81913;BME280;71377;50.698;7.164;2023-08-08T02:19:08;100985.44;;;12.99;82.03
81913;BME280;71377;50.698;7.164;2023-08-08T02:21:35;100990.84;;;12.96;82.12
81913;BME280;71377;50.698;7.164;2023-08-08T02:24:01;100982.19;;;12.92;82.51
81913;BME280;71377;50.698;7.164;2023-08-08T02:26:28;100975.41;;;12.87;82.34
81913;BME280;71377;50.698;7.164;2023-08-08T02:28:54;100974.91;;;12.99;82.30
81913;BME280;71377;50.698;7.164;2023-08-08T02:31:21;100974.41;;;12.89;82.28
81913;BME280;71377;50.698;7.164;2023-08-08T02:33:49;100978.03;;;12.87;82.19
81913;BME280;71377;50.698;7.164;2023-08-08T02:36:17;100972.00;;;12.83;82.30
81913;BME280;71377;50.698;7.164;2023-08-08T02:38:44;100973.69;;;12.86;82.26
81913;BME280;71377;50.698;7.164;2023-08-08T02:41:11;100975.63;;;12.81;82.36
81913;BME280;71377;50.698;7.164;2023-08-08T02:43:38;100979.19;;;12.80;82.22
81913;BME280;71377;50.698;7.164;2023-08-08T02:46:04;100969.00;;;12.70;82.16
81913;BME280;71377;50.698;7.164;2023-08-08T02:48:31;100973.28;;;12.73;82.45
81913;BME280;71377;50.698;7.164;2023-08-08T02:50:57;100977.34;;;12.60;81.78
81913;BME280;71377;50.698;7.164;2023-08-08T02:53:24;100978.75;;;12.68;82.60
81913;BME280;71377;50.698;7.164;2023-08-08T02:55:50;100965.03;;;12.60;82.20
81913;BME280;71377;50.698;7.164;2023-08-08T02:58:17;100970.38;;;12.57;82.54
81913;BME280;71377;50.698;7.164;2023-08-08T03:00:43;100966.16;;;12.53;82.11
81913;BME280;71377;50.698;7.164;2023-08-08T03:03:10;100962.75;;;12.51;82.52
81913;BME280;71377;50.698;7.164;2023-08-08T03:05:36;100958.19;;;12.55;82.65
81913;BME280;71377;50.698;7.164;2023-08-08T03:08:03;100958.31;;;12.52;82.41
81913;BME280;71377;50.698;7.164;2023-08-08T03:10:29;100957.47;;;12.51;81.73
81913;BME280;71377;50.698;7.164;2023-08-08T03:12:55;100952.19;;;12.51;82.02
81913;BME280;71377;50.698;7.164;2023-08-08T03:15:22;100943.38;;;12.52;82.71
81913;BME280;71377;50.698;7.164;2023-08-08T03:17:48;100944.63;;;12.42;82.06
81913;BME280;71377;50.698;7.164;2023-08-08T03:20:15;100931.00;;;12.31;82.30
81913;BME280;71377;50.698;7.164;2023-08-08T03:22:42;100926.78;;;12.27;82.69
81913;BME280;71377;50.698;7.164;2023-08-08T03:25:09;100923.09;;;12.31;82.69
81913;BME280;71377;50.698;7.164;2023-08-08T03:27:36;100922.88;;;12.37;82.38
81913;BME280;71377;50.698;7.164;2023-08-08T03:30:02;100912.22;;;12.40;82.61
81913;BME280;71377;50.698;7.164;2023-08-08T03:32:29;100916.97;;;12.30;82.24
81913;BME280;71377;50.698;7.164;2023-08-08T03:34:55;100917.97;;;12.28;82.38
81913;BME280;71377;50.698;7.164;2023-08-08T03:37:22;100924.09;;;12.28;82.69
81913;BME280;71377;50.698;7.164;2023-08-08T03:39:48;100918.19;;;12.22;82.12
81913;BME280;71377;50.698;7.164;2023-08-08T03:42:15;100912.84;;;12.23;82.40
81913;BME280;71377;50.698;7.164;2023-08-08T03:44:41;100912.06;;;12.21;82.52
81913;BME280;71377;50.698;7.164;2023-08-08T03:47:08;100910.41;;;12.19;82.12
81913;BME280;71377;50.698;7.164;2023-08-08T03:49:44;100912.19;;;12.18;82.24
81913;BME280;71377;50.698;7.164;2023-08-08T03:52:11;100909.66;;;12.15;82.48
81913;BME280;71377;50.698;7.164;2023-08-08T03:54:38;100913.91;;;12.19;82.23
81913;BME280;71377;50.698;7.164;2023-08-08T03:57:05;100909.94;;;12.31;82.81
81913;BME280;71377;50.698;7.164;2023-08-08T03:59:31;100914.63;;;12.23;82.20
81913;BME280;71377;50.698;7.164;2023-08-08T04:01:57;100917.66;;;12.12;82.34
81913;BME280;71377;50.698;7.164;2023-08-08T04:04:24;100909.72;;;12.13;82.46
81913;BME280;71377;50.698;7.164;2023-08-08T04:06:50;100914.63;;;12.23;82.47
81913;BME280;71377;50.698;7.164;2023-08-08T04:09:17;100909.03;;;12.08;82.54
81913;BME280;71377;50.698;7.164;2023-08-08T04:11:43;100918.66;;;12.09;82.12
81913;BME280;71377;50.698;7.164;2023-08-08T04:14:09;100922.78;;;12.16;82.55
81913;BME280;71377;50.698;7.164;2023-08-08T04:16:36;100929.19;;;12.09;82.63
81913;BME280;71377;50.698;7.164;2023-08-08T04:19:02;100929.19;;;12.09;82.14
81913;BME280;71377;50.698;7.164;2023-08-08T04:21:29;100922.88;;;12.13;82.47
81913;BME280;71377;50.698;7.164;2023-08-08T04:23:59;100922.88;;;12.13;82.52
81913;BME280;71377;50.698;7.164;2023-08-08T04:26:26;100919.03;;;12.22;82.86
81913;BME280;71377;50.698;7.164;2023-08-08T04:28:52;100917.72;;;12.10;82.40
81913;BME280;71377;50.698;7.164;2023-08-08T04:31:19;100929.63;;;12.21;82.69
81913;BME280;71377;50.698;7.164;2023-08-08T04:33:46;100927.34;;;12.11;82.48
81913;BME280;71377;50.698;7.164;2023-08-08T04:36:12;100936.72;;;11.95;82.25
81913;BME280;71377;50.698;7.164;2023-08-08T04:38:38;100933.16;;;11.96;82.43
81913;BME280;71377;50.698;7.164;2023-08-08T04:41:05;100934.22;;;11.92;83.17
81913;BME280;71377;50.698;7.164;2023-08-08T04:43:31;100931.34;;;11.98;82.78
81913;BME280;71377;50.698;7.164;2023-08-08T04:45:58;100935.59;;;12.02;82.97
81913;BME280;71377;50.698;7.164;2023-08-08T04:48:25;100934.19;;;12.15;83.00
81913;BME280;71377;50.698;7.164;2023-08-08T04:50:51;100929.84;;;12.14;82.80
81913;BME280;71377;50.698;7.164;2023-08-08T04:53:18;100934.75;;;12.25;83.10
81913;BME280;71377;50.698;7.164;2023-08-08T04:55:45;100941.72;;;12.26;82.41
81913;BME280;71377;50.698;7.164;2023-08-08T04:58:12;100937.19;;;12.30;82.56
81913;BME280;71377;50.698;7.164;2023-08-08T05:00:38;100935.25;;;12.35;83.11
81913;BME280;71377;50.698;7.164;2023-08-08T05:03:05;100931.78;;;12.33;82.77
81913;BME280;71377;50.698;7.164;2023-08-08T05:05:31;100920.81;;;12.45;83.08
81913;BME280;71377;50.698;7.164;2023-08-08T05:07:58;100925.41;;;12.62;83.38
81913;BME280;71377;50.698;7.164;2023-08-08T05:10:25;100926.09;;;12.67;83.19
81913;BME280;71377;50.698;7.164;2023-08-08T05:12:52;100932.53;;;12.82;83.36
81913;BME280;71377;50.698;7.164;2023-08-08T05:15:18;100920.44;;;12.98;83.26
81913;BME280;71377;50.698;7.164;2023-08-08T05:17:45;100916.66;;;13.05;83.25
81913;BME280;71377;50.698;7.164;2023-08-08T05:20:11;100915.97;;;13.22;83.70
81913;BME280;71377;50.698;7.164;2023-08-08T05:22:38;100914.91;;;13.46;83.96
81913;BME280;71377;50.698;7.164;2023-08-08T05:25:05;100916.78;;;13.44;83.81
81913;BME280;71377;50.698;7.164;2023-08-08T05:27:32;100910.78;;;13.41;84.18
81913;BME280;71377;50.698;7.164;2023-08-08T05:29:58;100913.28;;;13.44;84.34
81913;BME280;71377;50.698;7.164;2023-08-08T05:32:25;100918.31;;;13.50;84.44
81913;BME280;71377;50.698;7.164;2023-08-08T05:34:51;100911.44;;;13.66;84.43
81913;BME280;71377;50.698;7.164;2023-08-08T05:37:18;100911.16;;;13.72;84.46
81913;BME280;71377;50.698;7.164;2023-08-08T05:39:44;100907.25;;;13.81;84.31
81913;BME280;71377;50.698;7.164;2023-08-08T05:42:11;100913.44;;;14.00;83.87
81913;BME280;71377;50.698;7.164;2023-08-08T05:44:37;100920.44;;;14.01;84.17
81913;BME280;71377;50.698;7.164;2023-08-08T05:47:04;100924.03;;;14.19;83.74
81913;BME280;71377;50.698;7.164;2023-08-08T05:49:31;100920.28;;;14.23;83.15
81913;BME280;71377;50.698;7.164;2023-08-08T05:51:57;100927.88;;;14.12;84.42
81913;BME280;71377;50.698;7.164;2023-08-08T05:54:24;100928.44;;;14.19;83.99
81913;BME280;71377;50.698;7.164;2023-08-08T05:56:51;100924.72;;;14.23;83.79
81913;BME280;71377;50.698;7.164;2023-08-08T05:59:17;100920.03;;;14.29;83.56
81913;BME280;71377;50.698;7.164;2023-08-08T06:01:44;100921.06;;;14.46;82.56
81913;BME280;71377;50.698;7.164;2023-08-08T06:04:10;100917.53;;;14.64;82.24
81913;BME280;71377;50.698;7.164;2023-08-08T06:06:37;100914.03;;;14.63;81.40
81913;BME280;71377;50.698;7.164;2023-08-08T06:09:04;100917.34;;;14.68;82.09
81913;BME280;71377;50.698;7.164;2023-08-08T06:11:30;100928.31;;;14.78;81.97
81913;BME280;71377;50.698;7.164;2023-08-08T06:13:57;100924.44;;;14.85;81.73
81913;BME280;71377;50.698;7.164;2023-08-08T06:16:26;100924.69;;;14.98;81.56
81913;BME280;71377;50.698;7.164;2023-08-08T06:18:53;100923.69;;;15.01;80.77
81913;BME280;71377;50.698;7.164;2023-08-08T06:21:19;100929.72;;;15.21;80.96
81913;BME280;71377;50.698;7.164;2023-08-08T06:23:46;100934.38;;;15.16;81.16
81913;BME280;71377;50.698;7.164;2023-08-08T06:26:14;100925.59;;;15.33;81.45
81913;BME280;71377;50.698;7.164;2023-08-08T06:28:40;100924.44;;;15.39;81.30
81913;BME280;71377;50.698;7.164;2023-08-08T06:31:07;100924.47;;;15.54;80.81
81913;BME280;71377;50.698;7.164;2023-08-08T06:33:33;100930.13;;;15.48;81.30
81913;BME280;71377;50.698;7.164;2023-08-08T06:36:01;100927.38;;;15.50;81.79
81913;BME280;71377;50.698;7.164;2023-08-08T06:38:29;100926.06;;;15.59;81.37
81913;BME280;71377;50.698;7.164;2023-08-08T06:41:00;100933.31;;;15.55;82.17
81913;BME280;71377;50.698;7.164;2023-08-08T06:43:27;100933.22;;;15.57;82.04
81913;BME280;71377;50.698;7.164;2023-08-08T06:45:53;100929.63;;;15.58;81.81
81913;BME280;71377;50.698;7.164;2023-08-08T06:48:20;100932.59;;;15.86;81.13
81913;BME280;71377;50.698;7.164;2023-08-08T06:50:46;100929.38;;;15.64;82.37
81913;BME280;71377;50.698;7.164;2023-08-08T06:53:13;100925.41;;;15.53;83.84
81913;BME280;71377;50.698;7.164;2023-08-08T06:55:40;100927.94;;;15.57;83.63
81913;BME280;71377;50.698;7.164;2023-08-08T06:58:07;100922.63;;;15.57;83.02
81913;BME280;71377;50.698;7.164;2023-08-08T07:00:33;100918.81;;;15.62;82.56
81913;BME280;71377;50.698;7.164;2023-08-08T07:03:00;100923.72;;;15.70;82.69
81913;BME280;71377;50.698;7.164;2023-08-08T07:05:27;100925.78;;;15.65;82.62
81913;BME280;71377;50.698;7.164;2023-08-08T07:07:56;100919.50;;;15.83;82.39
81913;BME280;71377;50.698;7.164;2023-08-08T07:10:23;100921.78;;;16.06;81.63
81913;BME280;71377;50.698;7.164;2023-08-08T07:12:49;100915.72;;;16.04;81.16
81913;BME280;71377;50.698;7.164;2023-08-08T07:15:16;100911.97;;;16.08;79.89
81913;BME280;71377;50.698;7.164;2023-08-08T07:17:42;100921.41;;;16.30;77.41
81913;BME280;71377;50.698;7.164;2023-08-08T07:20:09;100908.91;;;16.32;77.43
81913;BME280;71377;50.698;7.164;2023-08-08T07:22:40;100906.97;;;16.51;77.38
81913;BME280;71377;50.698;7.164;2023-08-08T07:25:07;100889.16;;;16.85;74.31
81913;BME280;71377;50.698;7.164;2023-08-08T07:27:33;100891.66;;;17.18;74.16
81913;BME280;71377;50.698;7.164;2023-08-08T07:30:00;100878.28;;;17.19;72.46
81913;BME280;71377;50.698;7.164;2023-08-08T07:32:27;100888.59;;;17.40;71.47
81913;BME280;71377;50.698;7.164;2023-08-08T07:34:55;100877.31;;;17.50;70.89
81913;BME280;71377;50.698;7.164;2023-08-08T07:37:22;100890.78;;;17.62;71.45
81913;BME280;71377;50.698;7.164;2023-08-08T07:39:51;100883.25;;;17.84;70.18
81913;BME280;71377;50.698;7.164;2023-08-08T07:42:18;100889.72;;;17.94;71.05
81913;BME280;71377;50.698;7.164;2023-08-08T07:44:44;100886.19;;;17.94;67.80
81913;BME280;71377;50.698;7.164;2023-08-08T07:47:11;100881.63;;;18.10;65.51
81913;BME280;71377;50.698;7.164;2023-08-08T07:49:39;100872.03;;;18.22;66.78
81913;BME280;71377;50.698;7.164;2023-08-08T07:52:05;100878.19;;;18.22;65.45
81913;BME280;71377;50.698;7.164;2023-08-08T07:54:34;100879.03;;;18.37;65.23
81913;BME280;71377;50.698;7.164;2023-08-08T07:57:00;100878.38;;;18.33;65.63
81913;BME280;71377;50.698;7.164;2023-08-08T07:59:26;100880.88;;;18.08;64.48
81913;BME280;71377;50.698;7.164;2023-08-08T08:01:53;100877.81;;;18.14;64.23
81913;BME280;71377;50.698;7.164;2023-08-08T08:04:20;100877.59;;;18.46;63.43
81913;BME280;71377;50.698;7.164;2023-08-08T08:06:47;100882.09;;;18.72;63.90
81913;BME280;71377;50.698;7.164;2023-08-08T08:09:14;100884.88;;;18.71;63.74
81913;BME280;71377;50.698;7.164;2023-08-08T08:11:40;100877.56;;;18.60;64.45
81913;BME280;71377;50.698;7.164;2023-08-08T08:14:07;100883.44;;;18.65;62.42
81913;BME280;71377;50.698;7.164;2023-08-08T08:16:33;100886.69;;;18.56;61.39
81913;BME280;71377;50.698;7.164;2023-08-08T08:19:01;100884.69;;;18.59;62.43
81913;BME280;71377;50.698;7.164;2023-08-08T08:21:29;100880.66;;;18.93;59.93
81913;BME280;71377;50.698;7.164;2023-08-08T08:23:56;100883.78;;;19.00;58.59
81913;BME280;71377;50.698;7.164;2023-08-08T08:26:23;100891.47;;;19.05;58.24
81913;BME280;71377;50.698;7.164;2023-08-08T08:28:49;100894.50;;;18.86;58.56
81913;BME280;71377;50.698;7.164;2023-08-08T08:31:15;100887.84;;;19.06;57.50
81913;BME280;71377;50.698;7.164;2023-08-08T08:33:42;100883.91;;;18.99;58.82
81913;BME280;71377;50.698;7.164;2023-08-08T08:36:08;100881.34;;;18.97;59.21
81913;BME280;71377;50.698;7.164;2023-08-08T08:38:37;100877.72;;;18.98;59.45
81913;BME280;71377;50.698;7.164;2023-08-08T08:41:04;100882.66;;;19.17;60.13
81913;BME280;71377;50.698;7.164;2023-08-08T08:43:31;100876.94;;;19.23;57.98
81913;BME280;71377;50.698;7.164;2023-08-08T08:45:59;100874.22;;;18.98;59.58
81913;BME280;71377;50.698;7.164;2023-08-08T08:48:27;100877.22;;;19.18;58.81
81913;BME280;71377;50.698;7.164;2023-08-08T08:50:53;100876.38;;;19.18;58.99
81913;BME280;71377;50.698;7.164;2023-08-08T08:53:20;100868.25;;;19.07;60.38
81913;BME280;71377;50.698;7.164;2023-08-08T08:55:48;100873.69;;;19.05;60.72
81913;BME280;71377;50.698;7.164;2023-08-08T08:58:17;100874.50;;;19.45;57.97
81913;BME280;71377;50.698;7.164;2023-08-08T09:00:46;100866.59;;;19.44;58.29
81913;BME280;71377;50.698;7.164;2023-08-08T09:03:13;100868.13;;;19.61;56.69
81913;BME280;71377;50.698;7.164;2023-08-08T09:05:41;100872.53;;;19.74;57.99
81913;BME280;71377;50.698;7.164;2023-08-08T09:08:08;100866.44;;;19.72;55.85
81913;BME280;71377;50.698;7.164;2023-08-08T09:10:35;100867.50;;;19.70;58.67
81913;BME280;71377;50.698;7.164;2023-08-08T09:13:02;100858.09;;;20.02;55.47
81913;BME280;71377;50.698;7.164;2023-08-08T09:15:32;100870.38;;;20.42;55.94
81913;BME280;71377;50.698;7.164;2023-08-08T09:18:00;100869.84;;;20.37;55.06
81913;BME280;71377;50.698;7.164;2023-08-08T09:20:27;100869.50;;;20.41;52.96
81913;BME280;71377;50.698;7.164;2023-08-08T09:22:57;100863.19;;;20.05;51.59
81913;BME280;71377;50.698;7.164;2023-08-08T09:25:24;100869.97;;;20.22;52.58
81913;BME280;71377;50.698;7.164;2023-08-08T09:27:51;100867.97;;;20.13;53.16
81913;BME280;71377;50.698;7.164;2023-08-08T09:30:21;100866.75;;;20.43;53.54
81913;BME280;71377;50.698;7.164;2023-08-08T09:32:48;100860.41;;;20.20;52.53
81913;BME280;71377;50.698;7.164;2023-08-08T09:35:15;100863.03;;;19.83;53.96
81913;BME280;71377;50.698;7.164;2023-08-08T09:37:42;100864.03;;;20.06;53.61
81913;BME280;71377;50.698;7.164;2023-08-08T09:40:08;100871.41;;;20.02;54.64
81913;BME280;71377;50.698;7.164;2023-08-08T09:42:37;100867.91;;;19.51;53.85
81913;BME280;71377;50.698;7.164;2023-08-08T09:45:04;100860.47;;;19.69;51.74
81913;BME280;71377;50.698;7.164;2023-08-08T09:47:31;100864.31;;;19.65;52.67
81913;BME280;71377;50.698;7.164;2023-08-08T09:50:02;100873.69;;;19.83;51.74
81913;BME280;71377;50.698;7.164;2023-08-08T09:52:33;100873.81;;;19.56;53.53
81913;BME280;71377;50.698;7.164;2023-08-08T09:55:01;100864.94;;;19.81;52.03
81913;BME280;71377;50.698;7.164;2023-08-08T09:57:29;100870.28;;;19.81;53.56
81913;BME280;71377;50.698;7.164;2023-08-08T09:59:56;100866.34;;;19.74;54.00
81913;BME280;71377;50.698;7.164;2023-08-08T10:02:24;100875.78;;;19.53;54.41
81913;BME280;71377;50.698;7.164;2023-08-08T10:04:52;100878.13;;;19.44;54.80
81913;BME280;71377;50.698;7.164;2023-08-08T10:07:19;100878.66;;;19.49;55.27
81913;BME280;71377;50.698;7.164;2023-08-08T10:09:46;100879.66;;;19.74;54.57
81913;BME280;71377;50.698;7.164;2023-08-08T10:12:12;100883.38;;;19.59;54.39
81913;BME280;71377;50.698;7.164;2023-08-08T10:14:42;100880.25;;;19.52;54.25
81913;BME280;71377;50.698;7.164;2023-08-08T10:17:13;100880.31;;;19.65;54.71
81913;BME280;71377;50.698;7.164;2023-08-08T10:19:40;100870.47;;;20.03;52.16
81913;BME280;71377;50.698;7.164;2023-08-08T10:22:07;100883.28;;;19.86;53.87
81913;BME280;71377;50.698;7.164;2023-08-08T10:24:34;100878.81;;;19.73;53.45
81913;BME280;71377;50.698;7.164;2023-08-08T10:27:04;100879.97;;;20.08;52.05
81913;BME280;71377;50.698;7.164;2023-08-08T10:29:33;100868.09;;;20.12;53.09
81913;BME280;71377;50.698;7.164;2023-08-08T10:32:03;100871.22;;;19.93;53.08
81913;BME280;71377;50.698;7.164;2023-08-08T10:34:41;100879.81;;;20.22;51.67
81913;BME280;71377;50.698;7.164;2023-08-08T10:37:10;100876.16;;;20.23;50.90
81913;BME280;71377;50.698;7.164;2023-08-08T10:39:38;100884.84;;;20.14;50.98
81913;BME280;71377;50.698;7.164;2023-08-08T10:42:17;100882.16;;;20.14;50.01
81913;BME280;71377;50.698;7.164;2023-08-08T10:44:51;100881.78;;;20.07;49.67
81913;BME280;71377;50.698;7.164;2023-08-08T10:47:26;100884.41;;;20.20;50.29
81913;BME280;71377;50.698;7.164;2023-08-08T10:50:04;100875.97;;;20.26;51.43
81913;BME280;71377;50.698;7.164;2023-08-08T10:52:33;100880.19;;;19.92;50.92
81913;BME280;71377;50.698;7.164;2023-08-08T10:55:04;100880.63;;;19.86;51.14
81913;BME280;71377;50.698;7.164;2023-08-08T10:57:31;100873.22;;;19.89;51.90
81913;BME280;71377;50.698;7.164;2023-08-08T11:00:16;100865.97;;;20.17;52.04
81913;BME280;71377;50.698;7.164;2023-08-08T11:02:44;100867.56;;;20.19;52.36
81913;BME280;71377;50.698;7.164;2023-08-08T11:05:11;100873.75;;;20.56;51.86
81913;BME280;71377;50.698;7.164;2023-08-08T11:07:39;100867.41;;;20.70;50.50
81913;BME280;71377;50.698;7.164;2023-08-08T11:10:06;100870.47;;;20.53;50.44
81913;BME280;71377;50.698;7.164;2023-08-08T11:12:32;100867.44;;;20.21;51.77
81913;BME280;71377;50.698;7.164;2023-08-08T11:14:59;100866.94;;;20.52;51.94
81913;BME280;71377;50.698;7.164;2023-08-08T11:17:26;100863.97;;;20.31;51.81
81913;BME280;71377;50.698;7.164;2023-08-08T11:19:53;100864.16;;;20.41;52.90
81913;BME280;71377;50.698;7.164;2023-08-08T11:22:21;100860.22;;;19.97;53.03
81913;BME280;71377;50.698;7.164;2023-08-08T11:24:49;100866.19;;;20.01;52.48
81913;BME280;71377;50.698;7.164;2023-08-08T11:27:18;100858.75;;;19.93;53.55
81913;BME280;71377;50.698;7.164;2023-08-08T11:29:50;100862.22;;;20.07;53.13
81913;BME280;71377;50.698;7.164;2023-08-08T11:32:17;100865.34;;;20.00;55.01
81913;BME280;71377;50.698;7.164;2023-08-08T11:34:46;100868.78;;;19.90;54.66
81913;BME280;71377;50.698;7.164;2023-08-08T11:37:13;100860.44;;;19.94;54.37
81913;BME280;71377;50.698;7.164;2023-08-08T11:39:42;100861.13;;;19.72;57.38
81913;BME280;71377;50.698;7.164;2023-08-08T11:42:09;100869.38;;;20.06;55.03
81913;BME280;71377;50.698;7.164;2023-08-08T11:44:37;100861.28;;;20.08;55.54
81913;BME280;71377;50.698;7.164;2023-08-08T11:47:03;100847.84;;;19.96;55.53
81913;BME280;71377;50.698;7.164;2023-08-08T11:49:40;100851.44;;;20.57;55.30
81913;BME280;71377;50.698;7.164;2023-08-08T11:52:07;100851.66;;;20.54;53.51
81913;BME280;71377;50.698;7.164;2023-08-08T11:54:37;100851.31;;;20.22;54.09
81913;BME280;71377;50.698;7.164;2023-08-08T11:57:03;100852.97;;;19.99;54.80
81913;BME280;71377;50.698;7.164;2023-08-08T11:59:31;100849.19;;;19.65;56.12
81913;BME280;71377;50.698;7.164;2023-08-08T12:01:58;100852.91;;;19.75;56.51
81913;BME280;71377;50.698;7.164;2023-08-08T12:04:25;100849.72;;;19.58;56.83
81913;BME280;71377;50.698;7.164;2023-08-08T12:07:03;100850.66;;;19.69;56.66
81913;BME280;71377;50.698;7.164;2023-08-08T12:09:32;100845.72;;;19.89;55.96
81913;BME280;71377;50.698;7.164;2023-08-08T12:12:02;100844.03;;;19.49;55.70
81913;BME280;71377;50.698;7.164;2023-08-08T12:14:41;100858.00;;;19.79;55.75
81913;BME280;71377;50.698;7.164;2023-08-08T12:17:27;100844.25;;;19.85;56.22
81913;BME280;71377;50.698;7.164;2023-08-08T12:19:53;100848.69;;;20.10;56.25
81913;BME280;71377;50.698;7.164;2023-08-08T12:22:20;100855.13;;;19.69;57.58
81913;BME280;71377;50.698;7.164;2023-08-08T12:24:46;100851.72;;;19.67;57.61
81913;BME280;71377;50.698;7.164;2023-08-08T12:27:14;100846.19;;;19.57;57.86
81913;BME280;71377;50.698;7.164;2023-08-08T12:29:42;100838.06;;;19.46;56.93
81913;BME280;71377;50.698;7.164;2023-08-08T12:32:09;100840.97;;;19.81;56.17
81913;BME280;71377;50.698;7.164;2023-08-08T12:34:35;100842.75;;;19.93;56.11
81913;BME280;71377;50.698;7.164;2023-08-08T12:37:02;100838.94;;;19.59;57.08
81913;BME280;71377;50.698;7.164;2023-08-08T12:39:29;100828.69;;;19.79;56.08
81913;BME280;71377;50.698;7.164;2023-08-08T12:41:56;100837.44;;;19.68;57.20
81913;BME280;71377;50.698;7.164;2023-08-08T12:44:22;100842.22;;;19.63;57.10
81913;BME280;71377;50.698;7.164;2023-08-08T12:46:49;100829.13;;;19.60;57.04
81913;BME280;71377;50.698;7.164;2023-08-08T12:49:15;100840.19;;;19.79;56.31
81913;BME280;71377;50.698;7.164;2023-08-08T12:51:42;100843.00;;;19.65;57.13